createdAt,value
2016-06-04T00:00:16.026Z,1011.73
2016-06-04T00:01:16.013Z,1011.72
2016-06-04T00:02:16.000Z,1011.72
2016-06-04T00:03:15.987Z,1011.72
2016-06-04T00:04:15.975Z,1011.69
2016-06-04T00:05:15.946Z,1011.7
2016-06-04T00:06:15.933Z,1011.71
2016-06-04T00:07:15.920Z,1011.71
2016-06-04T00:08:15.907Z,1011.75
2016-06-04T00:09:15.894Z,1011.7
2016-06-04T00:10:15.866Z,1011.73
2016-06-04T00:11:16.493Z,1011.67
2016-06-04T00:12:15.839Z,1011.67
2016-06-04T00:13:15.827Z,1011.68
2016-06-04T00:14:15.798Z,1011.63
2016-06-04T00:15:15.785Z,1011.64
2016-06-04T00:16:15.787Z,1011.62
2016-06-04T00:17:15.759Z,1011.63
2016-06-04T00:18:15.746Z,1011.63
2016-06-04T00:19:15.733Z,1011.6
2016-06-04T00:20:15.705Z,1011.59
2016-06-04T00:21:15.692Z,1011.61
2016-06-04T00:22:15.679Z,1011.61
2016-06-04T00:23:15.728Z,1011.61
2016-06-04T00:24:15.637Z,1011.59
2016-06-04T00:25:15.625Z,1011.57
2016-06-04T00:26:15.612Z,1011.58
2016-06-04T00:27:15.598Z,1011.58
2016-06-04T00:28:15.569Z,1011.58
2016-06-04T00:29:15.558Z,1011.57
2016-06-04T00:30:15.544Z,1011.6
2016-06-04T00:31:15.531Z,1011.6
2016-06-04T00:32:15.518Z,1011.57
2016-06-04T00:33:15.489Z,1011.59
2016-06-04T00:34:15.477Z,1011.59
2016-06-04T00:35:15.464Z,1011.58
2016-06-04T00:36:15.451Z,1011.58
2016-06-04T00:37:15.438Z,1011.55
2016-06-04T00:38:15.441Z,1011.48
2016-06-04T00:39:15.397Z,1011.5
2016-06-04T00:40:15.383Z,1011.48
2016-06-04T00:41:15.371Z,1011.49
2016-06-04T00:42:15.343Z,1011.46
2016-06-04T00:43:15.329Z,1011.46
2016-06-04T00:44:15.316Z,1011.48
2016-06-04T00:45:15.303Z,1011.47
2016-06-04T00:46:15.291Z,1011.48
2016-06-04T00:47:15.262Z,1011.45
2016-06-04T00:48:15.249Z,1011.45
2016-06-04T00:49:15.236Z,1011.46
2016-06-04T00:50:15.223Z,1011.48
2016-06-04T00:51:15.210Z,1011.46
2016-06-04T00:52:15.197Z,1011.47
2016-06-04T00:53:15.169Z,1011.49
2016-06-04T00:54:15.156Z,1011.46
2016-06-04T00:55:15.142Z,1011.45
2016-06-04T00:56:15.114Z,1011.46
2016-06-04T00:57:15.101Z,1011.42
2016-06-04T00:58:15.089Z,1011.43
2016-06-04T00:59:15.087Z,1011.41
2016-06-04T01:00:15.108Z,1011.45
2016-06-04T01:01:15.128Z,1011.46
2016-06-04T01:02:15.134Z,1011.39
2016-06-04T01:03:15.154Z,1011.42
2016-06-04T01:04:15.166Z,1011.44
2016-06-04T01:05:15.166Z,1011.41
2016-06-04T01:06:15.149Z,1011.43
2016-06-04T01:07:15.148Z,1011.43
2016-06-04T01:08:15.147Z,1011.38
2016-06-04T01:09:15.143Z,1011.42
2016-06-04T01:10:15.118Z,1011.44
2016-06-04T01:11:15.125Z,1011.42
2016-06-04T01:12:15.101Z,1011.4
2016-06-04T01:13:15.092Z,1011.43
2016-06-04T01:14:15.083Z,1011.46
2016-06-04T01:15:15.071Z,1011.42
2016-06-04T01:16:15.044Z,1011.44
2016-06-04T01:17:15.032Z,1011.45
2016-06-04T01:18:15.022Z,1011.46
2016-06-04T01:19:15.009Z,1011.44
2016-06-04T01:20:14.981Z,1011.45
2016-06-04T01:21:14.969Z,1011.42
2016-06-04T01:22:14.957Z,1011.45
2016-06-04T01:23:14.960Z,1011.46
2016-06-04T01:24:14.947Z,1011.47
2016-06-04T01:25:14.903Z,1011.44
2016-06-04T01:26:14.890Z,1011.44
2016-06-04T01:27:14.878Z,1011.37
2016-06-04T01:28:14.850Z,1011.44
2016-06-04T01:29:14.837Z,1011.39
2016-06-04T01:30:14.824Z,1011.43
2016-06-04T01:31:14.812Z,1011.35
2016-06-04T01:32:14.798Z,1011.33
2016-06-04T01:33:14.770Z,1011.35
2016-06-04T01:34:14.756Z,1011.34
2016-06-04T01:35:14.745Z,1011.34
2016-06-04T01:36:14.731Z,1011.34
2016-06-04T01:37:14.703Z,1011.32
2016-06-04T01:38:14.690Z,1011.34
2016-06-04T01:39:14.676Z,1011.26
2016-06-04T01:40:14.664Z,1011.27
2016-06-04T01:41:14.651Z,1011.26
2016-06-04T01:42:14.622Z,1011.21
2016-06-04T01:43:14.609Z,1011.24
2016-06-04T01:44:14.597Z,1011.23
2016-06-04T01:45:14.583Z,1011.24
2016-06-04T01:46:14.570Z,1011.23
2016-06-04T01:47:14.558Z,1011.23
2016-06-04T01:48:14.545Z,1011.21
2016-06-04T01:49:14.516Z,1011.2
2016-06-04T01:50:14.503Z,1011.17
2016-06-04T01:51:14.474Z,1011.21
2016-06-04T01:52:14.461Z,1011.17
2016-06-04T01:53:14.449Z,1011.19
2016-06-04T01:54:14.435Z,1011.21
2016-06-04T01:55:14.423Z,1011.18
2016-06-04T01:56:14.394Z,1011.19
2016-06-04T01:57:14.382Z,1011.16
2016-06-04T01:58:14.400Z,1011.13
2016-06-04T01:59:14.355Z,1011.14
2016-06-04T02:00:14.326Z,1011.14
2016-06-04T02:01:14.315Z,1011.09
2016-06-04T02:02:14.301Z,1011.11
2016-06-04T02:03:14.287Z,1011.07
2016-06-04T02:04:14.276Z,1011.06
2016-06-04T02:05:14.246Z,1011.07
2016-06-04T02:06:14.233Z,1011.03
2016-06-04T02:07:14.221Z,1011.08
2016-06-04T02:08:14.208Z,1011.11
2016-06-04T02:09:14.194Z,1011.09
2016-06-04T02:10:14.167Z,1011.12
2016-06-04T02:11:14.154Z,1011.14
2016-06-04T02:12:14.139Z,1011.15
2016-06-04T02:13:14.128Z,1011.14
2016-06-04T02:14:14.099Z,1011.13
2016-06-04T02:15:14.086Z,1011.1
2016-06-04T02:16:14.072Z,1011.12
2016-06-04T02:17:14.060Z,1011.11
2016-06-04T02:18:14.031Z,1011.11
2016-06-04T02:19:14.019Z,1011.09
2016-06-04T02:20:14.005Z,1011.05
2016-06-04T02:21:13.993Z,1011.1
2016-06-04T02:22:13.980Z,1011.09
2016-06-04T02:23:13.967Z,1011.1
2016-06-04T02:24:13.939Z,1011.06
2016-06-04T02:25:13.925Z,1011.08
2016-06-04T02:26:13.912Z,1011.08
2016-06-04T02:27:13.899Z,1011.02
2016-06-04T02:28:13.871Z,1011.07
2016-06-04T02:29:13.857Z,1011.07
2016-06-04T02:30:13.845Z,1011.06
2016-06-04T02:31:13.832Z,1011.1
2016-06-04T02:32:13.819Z,1011.12
2016-06-04T02:33:13.790Z,1011.11
2016-06-04T02:34:13.778Z,1011.11
2016-06-04T02:35:13.765Z,1011.13
2016-06-04T02:36:13.737Z,1011.11
2016-06-04T02:37:13.723Z,1011.06
2016-06-04T02:38:13.709Z,1011.07
2016-06-04T02:39:13.698Z,1011.06
2016-06-04T02:40:13.669Z,1011.08
2016-06-04T02:41:14.453Z,1011.11
2016-06-04T02:42:13.643Z,1011.06
2016-06-04T02:43:13.630Z,1011.07
2016-06-04T02:44:13.617Z,1011.07
2016-06-04T02:45:13.604Z,1011.06
2016-06-04T02:46:13.575Z,1011.04
2016-06-04T02:47:13.563Z,1011.05
2016-06-04T02:48:13.549Z,1011.02
2016-06-04T02:49:13.521Z,1011.05
2016-06-04T02:50:13.508Z,1011.05
2016-06-04T02:51:13.495Z,1011.03
2016-06-04T02:52:13.482Z,1011.09
2016-06-04T02:53:13.469Z,1011.12
2016-06-04T02:54:13.457Z,1011.09
2016-06-04T02:55:13.428Z,1011.09
2016-06-04T02:56:13.415Z,1011.1
2016-06-04T02:57:13.402Z,1011.06
2016-06-04T02:58:13.373Z,1011.08
2016-06-04T02:59:13.360Z,1011.04
2016-06-04T03:00:13.348Z,1011.04
2016-06-04T03:01:13.335Z,1011.04
2016-06-04T03:02:13.321Z,1011.05
2016-06-04T03:03:13.293Z,1011.07
2016-06-04T03:04:13.280Z,1011.05
2016-06-04T03:05:13.268Z,1011.04
2016-06-04T03:06:13.254Z,1011.03
2016-06-04T03:07:13.242Z,1011.04
2016-06-04T03:08:13.213Z,1011.03
2016-06-04T03:09:13.200Z,1011.02
2016-06-04T03:10:13.187Z,1011.03
2016-06-04T03:11:13.173Z,1011.02
2016-06-04T03:12:13.145Z,1011.01
2016-06-04T03:13:13.133Z,1011.02
2016-06-04T03:14:13.120Z,1011.03
2016-06-04T03:15:13.091Z,1011.02
2016-06-04T03:16:13.094Z,1011
2016-06-04T03:17:13.065Z,1010.94
2016-06-04T03:18:13.052Z,1010.93
2016-06-04T03:19:13.040Z,1010.9
2016-06-04T03:20:13.011Z,1010.9
2016-06-04T03:21:13.013Z,1010.9
2016-06-04T03:22:13.017Z,1010.89
2016-06-04T03:23:12.972Z,1010.9
2016-06-04T03:24:12.959Z,1010.87
2016-06-04T03:25:12.930Z,1010.89
2016-06-04T03:26:12.933Z,1010.91
2016-06-04T03:27:12.905Z,1010.93
2016-06-04T03:28:12.892Z,1010.87
2016-06-04T03:29:12.879Z,1010.85
2016-06-04T03:30:12.850Z,1010.86
2016-06-04T03:31:12.838Z,1010.83
2016-06-04T03:32:12.825Z,1010.84
2016-06-04T03:33:12.811Z,1010.81
2016-06-04T03:34:12.783Z,1010.87
2016-06-04T03:35:12.770Z,1010.86
2016-06-04T03:36:12.757Z,1010.88
2016-06-04T03:37:12.728Z,1010.85
2016-06-04T03:38:12.715Z,1010.86
2016-06-04T03:39:12.703Z,1010.88
2016-06-04T03:40:12.690Z,1010.88
2016-06-04T03:41:13.208Z,1010.85
2016-06-04T03:42:12.664Z,1010.85
2016-06-04T03:43:12.650Z,1010.86
2016-06-04T03:44:12.622Z,1010.88
2016-06-04T03:45:12.609Z,1010.89
2016-06-04T03:46:12.581Z,1010.9
2016-06-04T03:47:12.584Z,1010.91
2016-06-04T03:48:12.555Z,1010.9
2016-06-04T03:49:12.542Z,1010.94
2016-06-04T03:50:12.513Z,1010.94
2016-06-04T03:51:12.500Z,1010.95
2016-06-04T03:52:12.487Z,1010.98
2016-06-04T03:53:12.475Z,1011
2016-06-04T03:54:12.461Z,1011.03
2016-06-04T03:55:12.433Z,1011.01
2016-06-04T03:56:12.419Z,1011.03
2016-06-04T03:57:12.407Z,1011.03
2016-06-04T03:58:12.394Z,1011
2016-06-04T03:59:12.382Z,1011.05
2016-06-04T04:00:12.352Z,1011
2016-06-04T04:01:12.340Z,1011.02
2016-06-04T04:02:12.327Z,1011.04
2016-06-04T04:03:12.299Z,1011.02
2016-06-04T04:04:12.285Z,1011.02
2016-06-04T04:05:12.273Z,1011.07
2016-06-04T04:06:12.260Z,1011.07
2016-06-04T04:07:12.246Z,1011.08
2016-06-04T04:08:12.234Z,1011.09
2016-06-04T04:09:12.204Z,1011.12
2016-06-04T04:10:12.192Z,1011.14
2016-06-04T04:11:12.179Z,1011.11
2016-06-04T04:12:12.167Z,1011.13
2016-06-04T04:13:12.137Z,1011.15
2016-06-04T04:14:12.125Z,1011.14
2016-06-04T04:15:12.112Z,1011.16
2016-06-04T04:16:12.083Z,1011.15
2016-06-04T04:17:12.086Z,1011.16
2016-06-04T04:18:12.058Z,1011.16
2016-06-04T04:19:12.060Z,1011.16
2016-06-04T04:20:12.031Z,1011.12
2016-06-04T04:21:12.003Z,1011.14
2016-06-04T04:22:11.990Z,1011.16
2016-06-04T04:23:11.977Z,1011.12
2016-06-04T04:24:11.964Z,1011.14
2016-06-04T04:25:11.936Z,1011.14
2016-06-04T04:26:12.814Z,1011.12
2016-06-04T04:27:11.910Z,1011.11
2016-06-04T04:28:11.897Z,1011.09
2016-06-04T04:29:11.869Z,1011.07
2016-06-04T04:30:11.855Z,1011.08
2016-06-04T04:31:11.842Z,1011.07
2016-06-04T04:32:11.829Z,1011.09
2016-06-04T04:33:11.816Z,1011.11
2016-06-04T04:34:11.788Z,1011.12
2016-06-04T04:35:11.774Z,1011.1
2016-06-04T04:36:11.762Z,1011.09
2016-06-04T04:37:11.749Z,1011.06
2016-06-04T04:38:11.720Z,1011.09
2016-06-04T04:39:11.708Z,1011.17
2016-06-04T04:40:11.695Z,1011.14
2016-06-04T04:41:11.916Z,1011.09
2016-06-04T04:42:11.668Z,1011.13
2016-06-04T04:43:11.640Z,1011.14
2016-06-04T04:44:11.628Z,1011.16
2016-06-04T04:45:11.615Z,1011.14
2016-06-04T04:46:11.601Z,1011.13
2016-06-04T04:47:11.573Z,1011.21
2016-06-04T04:48:11.559Z,1011.21
2016-06-04T04:49:11.547Z,1011.19
2016-06-04T04:50:11.534Z,1011.16
2016-06-04T04:51:11.506Z,1011.14
2016-06-04T04:52:11.492Z,1011.18
2016-06-04T04:53:11.480Z,1011.15
2016-06-04T04:54:11.467Z,1011.17
2016-06-04T04:55:11.454Z,1011.17
2016-06-04T04:56:11.800Z,1011.15
2016-06-04T04:57:11.412Z,1011.23
2016-06-04T04:58:11.400Z,1011.23
2016-06-04T04:59:11.386Z,1011.23
2016-06-04T05:00:11.373Z,1011.23
2016-06-04T05:01:11.344Z,1011.23
2016-06-04T05:02:11.347Z,1011.22
2016-06-04T05:03:11.319Z,1011.24
2016-06-04T05:04:11.307Z,1011.24
2016-06-04T05:05:11.277Z,1011.24
2016-06-04T05:06:11.265Z,1011.21
2016-06-04T05:07:11.252Z,1011.23
2016-06-04T05:08:11.254Z,1011.21
2016-06-04T05:09:11.226Z,1011.24
2016-06-04T05:10:11.198Z,1011.22
2016-06-04T05:11:11.184Z,1011.24
2016-06-04T05:12:11.171Z,1011.23
2016-06-04T05:13:11.159Z,1011.22
2016-06-04T05:14:11.130Z,1011.23
2016-06-04T05:15:11.117Z,1011.22
2016-06-04T05:16:11.103Z,1011.22
2016-06-04T05:17:11.092Z,1011.23
2016-06-04T05:18:11.078Z,1011.23
2016-06-04T05:19:11.050Z,1011.26
2016-06-04T05:20:11.037Z,1011.22
2016-06-04T05:21:11.024Z,1011.22
2016-06-04T05:22:11.011Z,1011.24
2016-06-04T05:23:10.997Z,1011.22
2016-06-04T05:24:10.986Z,1011.23
2016-06-04T05:25:10.956Z,1011.23
2016-06-04T05:26:11.319Z,1011.21
2016-06-04T05:27:10.930Z,1011.19
2016-06-04T05:28:10.902Z,1011.24
2016-06-04T05:29:10.905Z,1011.21
2016-06-04T05:30:10.876Z,1011.18
2016-06-04T05:31:10.863Z,1011.23
2016-06-04T05:32:10.850Z,1011.23
2016-06-04T05:33:10.822Z,1011.27
2016-06-04T05:34:10.808Z,1011.26
2016-06-04T05:35:10.796Z,1011.24
2016-06-04T05:36:10.782Z,1011.25
2016-06-04T05:37:10.771Z,1011.25
2016-06-04T05:38:10.741Z,1011.27
2016-06-04T05:39:10.729Z,1011.25
2016-06-04T05:40:10.716Z,1011.27
2016-06-04T05:41:10.702Z,1011.24
2016-06-04T05:42:10.674Z,1011.22
2016-06-04T05:43:10.676Z,1011.27
2016-06-04T05:44:10.648Z,1011.28
2016-06-04T05:45:10.635Z,1011.26
2016-06-04T05:46:10.622Z,1011.3
2016-06-04T05:47:10.593Z,1011.24
2016-06-04T05:48:10.581Z,1011.24
2016-06-04T05:49:10.568Z,1011.26
2016-06-04T05:50:10.555Z,1011.26
2016-06-04T05:51:10.542Z,1011.26
2016-06-04T05:52:10.529Z,1011.26
2016-06-04T05:53:10.500Z,1011.22
2016-06-04T05:54:10.487Z,1011.22
2016-06-04T05:55:10.475Z,1011.23
2016-06-04T05:56:10.461Z,1011.25
2016-06-04T05:57:10.433Z,1011.23
2016-06-04T05:58:10.436Z,1011.24
2016-06-04T05:59:10.408Z,1011.25
2016-06-04T06:00:10.394Z,1011.29
2016-06-04T06:01:10.366Z,1011.25
2016-06-04T06:02:10.352Z,1011.31
2016-06-04T06:03:10.341Z,1011.31
2016-06-04T06:04:10.327Z,1011.32
2016-06-04T06:05:10.314Z,1011.28
2016-06-04T06:06:10.301Z,1011.29
2016-06-04T06:07:10.272Z,1011.3
2016-06-04T06:08:10.259Z,1011.29
2016-06-04T06:09:10.246Z,1011.3
2016-06-04T06:10:10.234Z,1011.31
2016-06-04T06:11:10.221Z,1011.3
2016-06-04T06:12:10.207Z,1011.33
2016-06-04T06:13:10.179Z,1011.3
2016-06-04T06:14:10.166Z,1011.32
2016-06-04T06:15:10.154Z,1011.3
2016-06-04T06:16:10.125Z,1011.31
2016-06-04T06:17:10.112Z,1011.27
2016-06-04T06:18:10.099Z,1011.3
2016-06-04T06:19:10.086Z,1011.29
2016-06-04T06:20:10.073Z,1011.32
2016-06-04T06:21:10.045Z,1011.28
2016-06-04T06:22:10.031Z,1011.29
2016-06-04T06:23:10.019Z,1011.3
2016-06-04T06:24:10.005Z,1011.28
2016-06-04T06:25:09.992Z,1011.31
2016-06-04T06:26:09.965Z,1011.31
2016-06-04T06:27:09.951Z,1011.28
2016-06-04T06:28:09.953Z,1011.3
2016-06-04T06:29:09.925Z,1011.33
2016-06-04T06:30:09.913Z,1011.37
2016-06-04T06:31:09.883Z,1011.36
2016-06-04T06:32:09.886Z,1011.41
2016-06-04T06:33:09.858Z,1011.39
2016-06-04T06:34:09.845Z,1011.39
2016-06-04T06:35:09.832Z,1011.4
2016-06-04T06:36:09.804Z,1011.37
2016-06-04T06:37:09.791Z,1011.4
2016-06-04T06:38:09.777Z,1011.4
2016-06-04T06:39:09.765Z,1011.44
2016-06-04T06:40:09.752Z,1011.45
2016-06-04T06:41:09.863Z,1011.44
2016-06-04T06:42:09.710Z,1011.44
2016-06-04T06:43:09.698Z,1011.45
2016-06-04T06:44:09.684Z,1011.46
2016-06-04T06:45:09.656Z,1011.48
2016-06-04T06:46:09.643Z,1011.48
2016-06-04T06:47:09.630Z,1011.52
2016-06-04T06:48:09.617Z,1011.54
2016-06-04T06:49:09.604Z,1011.53
2016-06-04T06:50:09.575Z,1011.52
2016-06-04T06:51:09.563Z,1011.51
2016-06-04T06:52:09.550Z,1011.54
2016-06-04T06:53:09.537Z,1011.56
2016-06-04T06:54:09.523Z,1011.55
2016-06-04T06:55:09.511Z,1011.56
2016-06-04T06:56:09.483Z,1011.55
2016-06-04T06:57:09.485Z,1011.56
2016-06-04T06:58:09.456Z,1011.52
2016-06-04T06:59:09.444Z,1011.58
2016-06-04T07:00:09.431Z,1011.6
2016-06-04T07:01:09.418Z,1011.59
2016-06-04T07:02:09.389Z,1011.62
2016-06-04T07:03:09.377Z,1011.61
2016-06-04T07:04:09.363Z,1011.6
2016-06-04T07:05:09.335Z,1011.62
2016-06-04T07:06:09.322Z,1011.6
2016-06-04T07:07:09.309Z,1011.66
2016-06-04T07:08:09.296Z,1011.65
2016-06-04T07:09:09.267Z,1011.69
2016-06-04T07:10:09.254Z,1011.68
2016-06-04T07:11:09.632Z,1011.72
2016-06-04T07:12:09.243Z,1011.69
2016-06-04T07:13:09.215Z,1011.76
2016-06-04T07:14:09.203Z,1011.75
2016-06-04T07:15:09.174Z,1011.76
2016-06-04T07:16:09.161Z,1011.78
2016-06-04T07:17:09.148Z,1011.74
2016-06-04T07:18:09.135Z,1011.76
2016-06-04T07:19:09.123Z,1011.77
2016-06-04T07:20:09.093Z,1011.77
2016-06-04T07:21:09.081Z,1011.81
2016-06-04T07:22:09.068Z,1011.78
2016-06-04T07:23:09.056Z,1011.8
2016-06-04T07:24:09.042Z,1011.87
2016-06-04T07:25:09.013Z,1011.8
2016-06-04T07:26:09.001Z,1011.8
2016-06-04T07:27:08.987Z,1011.84
2016-06-04T07:28:08.975Z,1011.8
2016-06-04T07:29:08.962Z,1011.79
2016-06-04T07:30:08.949Z,1011.84
2016-06-04T07:31:08.936Z,1011.88
2016-06-04T07:32:08.907Z,1011.89
2016-06-04T07:33:08.894Z,1011.85
2016-06-04T07:34:08.881Z,1011.83
2016-06-04T07:35:08.853Z,1011.88
2016-06-04T07:36:08.840Z,1011.82
2016-06-04T07:37:08.827Z,1011.81
2016-06-04T07:38:08.814Z,1011.92
2016-06-04T07:39:08.802Z,1011.91
2016-06-04T07:40:08.772Z,1011.9
2016-06-04T07:41:08.760Z,1011.82
2016-06-04T07:42:08.747Z,1011.88
2016-06-04T07:43:08.735Z,1011.85
2016-06-04T07:44:08.721Z,1011.9
2016-06-04T07:45:08.707Z,1011.9
2016-06-04T07:46:08.679Z,1011.97
2016-06-04T07:47:08.666Z,1011.95
2016-06-04T07:48:08.654Z,1011.97
2016-06-04T07:49:08.640Z,1012.05
2016-06-04T07:50:08.628Z,1012.04
2016-06-04T07:51:08.615Z,1012.02
2016-06-04T07:52:08.586Z,1012.02
2016-06-04T07:53:08.573Z,1011.99
2016-06-04T07:54:08.559Z,1011.99
2016-06-04T07:55:08.532Z,1011.97
2016-06-04T07:56:08.831Z,1011.95
2016-06-04T07:57:08.506Z,1012
2016-06-04T07:58:08.493Z,1011.97
2016-06-04T07:59:08.480Z,1011.99
2016-06-04T08:00:08.483Z,1012.03
2016-06-04T08:01:08.454Z,1012.01
2016-06-04T08:02:08.425Z,1012.03
2016-06-04T08:03:08.413Z,1012.04
2016-06-04T08:04:08.400Z,1012.08
2016-06-04T08:05:08.386Z,1012.05
2016-06-04T08:06:08.374Z,1012.05
2016-06-04T08:07:08.361Z,1012.04
2016-06-04T08:08:08.333Z,1012.05
2016-06-04T08:09:08.335Z,1012.04
2016-06-04T08:10:08.307Z,1012.1
2016-06-04T08:11:08.293Z,1012.12
2016-06-04T08:12:08.280Z,1012.13
2016-06-04T08:13:08.252Z,1012.17
2016-06-04T08:14:08.238Z,1012.16
2016-06-04T08:15:08.227Z,1012.17
2016-06-04T08:16:08.213Z,1012.17
2016-06-04T08:17:08.201Z,1012.2
2016-06-04T08:18:08.187Z,1012.23
2016-06-04T08:19:08.159Z,1012.25
2016-06-04T08:20:08.162Z,1012.26
2016-06-04T08:21:08.132Z,1012.29
2016-06-04T08:22:08.120Z,1012.33
2016-06-04T08:23:08.106Z,1012.35
2016-06-04T08:24:08.095Z,1012.32
2016-06-04T08:25:08.065Z,1012.35
2016-06-04T08:26:08.053Z,1012.34
2016-06-04T08:27:08.040Z,1012.35
2016-06-04T08:28:08.026Z,1012.33
2016-06-04T08:29:08.014Z,1012.3
2016-06-04T08:30:08.000Z,1012.26
2016-06-04T08:31:07.972Z,1012.3
2016-06-04T08:32:07.959Z,1012.3
2016-06-04T08:33:07.946Z,1012.26
2016-06-04T08:34:07.934Z,1012.35
2016-06-04T08:35:07.920Z,1012.32
2016-06-04T08:36:08.157Z,1012.31
2016-06-04T08:37:07.879Z,1012.34
2016-06-04T08:38:07.866Z,1012.32
2016-06-04T08:39:09.274Z,1012.35
2016-06-04T08:40:07.840Z,1012.38
2016-06-04T08:41:07.827Z,1012.39
2016-06-04T08:42:07.813Z,1012.39
2016-06-04T08:43:07.801Z,1012.37
2016-06-04T08:44:07.774Z,1012.39
2016-06-04T08:45:07.760Z,1012.35
2016-06-04T08:46:07.747Z,1012.4
2016-06-04T08:47:07.734Z,1012.41
2016-06-04T08:48:07.721Z,1012.48
2016-06-04T08:49:07.708Z,1012.43
2016-06-04T08:50:07.695Z,1012.43
2016-06-04T08:51:07.667Z,1012.41
2016-06-04T08:52:07.654Z,1012.47
2016-06-04T08:53:07.640Z,1012.45
2016-06-04T08:54:07.628Z,1012.48
2016-06-04T08:55:07.615Z,1012.49
2016-06-04T08:56:07.601Z,1012.4
2016-06-04T08:57:07.589Z,1012.4
2016-06-04T08:58:07.561Z,1012.39
2016-06-04T08:59:07.547Z,1012.46
2016-06-04T09:00:07.534Z,1012.41
2016-06-04T09:01:07.522Z,1012.43
2016-06-04T09:02:07.509Z,1012.49
2016-06-04T09:03:07.495Z,1012.45
2016-06-04T09:04:07.483Z,1012.44
2016-06-04T09:05:07.470Z,1012.46
2016-06-04T09:06:07.458Z,1012.47
2016-06-04T09:07:07.428Z,1012.5
2016-06-04T09:08:07.416Z,1012.45
2016-06-04T09:09:07.403Z,1012.46
2016-06-04T09:10:07.389Z,1012.43
2016-06-04T09:11:07.377Z,1012.53
2016-06-04T09:12:07.364Z,1012.45
2016-06-04T09:13:07.351Z,1012.43
2016-06-04T09:14:07.338Z,1012.41
2016-06-04T09:15:07.324Z,1012.5
2016-06-04T09:16:07.313Z,1012.41
2016-06-04T09:17:07.299Z,1012.46
2016-06-04T09:18:07.270Z,1012.45
2016-06-04T09:19:07.258Z,1012.4
2016-06-04T09:20:07.245Z,1012.43
2016-06-04T09:21:07.232Z,1012.44
2016-06-04T09:22:07.219Z,1012.43
2016-06-04T09:23:07.206Z,1012.44
2016-06-04T09:24:07.193Z,1012.39
2016-06-04T09:25:07.180Z,1012.44
2016-06-04T09:26:07.167Z,1012.43
2016-06-04T09:27:07.154Z,1012.43
2016-06-04T09:28:07.141Z,1012.37
2016-06-04T09:29:07.129Z,1012.45
2016-06-04T09:30:07.115Z,1012.42
2016-06-04T09:31:07.102Z,1012.41
2016-06-04T09:32:07.089Z,1012.37
2016-06-04T09:33:07.062Z,1012.34
2016-06-04T09:34:07.048Z,1012.38
2016-06-04T09:35:07.036Z,1012.36
2016-06-04T09:36:07.022Z,1012.33
2016-06-04T09:37:07.009Z,1012.37
2016-06-04T09:38:06.997Z,1012.38
2016-06-04T09:39:06.983Z,1012.36
2016-06-04T09:40:06.970Z,1012.34
2016-06-04T09:41:06.958Z,1012.36
2016-06-04T09:42:06.945Z,1012.35
2016-06-04T09:43:06.932Z,1012.34
2016-06-04T09:44:06.919Z,1012.41
2016-06-04T09:45:06.905Z,1012.34
2016-06-04T09:46:06.893Z,1012.33
2016-06-04T09:47:06.864Z,1012.38
2016-06-04T09:48:06.851Z,1012.4
2016-06-04T09:49:06.838Z,1012.39
2016-06-04T09:50:06.826Z,1012.38
2016-06-04T09:51:06.813Z,1012.4
2016-06-04T09:52:06.799Z,1012.37
2016-06-04T09:53:06.786Z,1012.41
2016-06-04T09:54:06.774Z,1012.37
2016-06-04T09:55:06.760Z,1012.37
2016-06-04T09:56:06.748Z,1012.42
2016-06-04T09:57:06.734Z,1012.43
2016-06-04T09:58:06.738Z,1012.33
2016-06-04T09:59:06.709Z,1012.35
2016-06-04T10:00:06.696Z,1012.37
2016-06-04T10:01:06.683Z,1012.32
2016-06-04T10:02:06.670Z,1012.38
2016-06-04T10:03:06.657Z,1012.35
2016-06-04T10:04:06.645Z,1012.36
2016-06-04T10:05:06.648Z,1012.34
2016-06-04T10:06:06.664Z,1012.37
2016-06-04T10:07:06.678Z,1012.44
2016-06-04T10:08:06.678Z,1012.35
2016-06-04T10:09:06.692Z,1012.44
2016-06-04T10:10:06.695Z,1012.39
2016-06-04T10:11:06.708Z,1012.35
2016-06-04T10:12:06.690Z,1012.49
2016-06-04T10:13:06.688Z,1012.47
2016-06-04T10:14:06.684Z,1012.4
2016-06-04T10:15:06.677Z,1012.37
2016-06-04T10:16:06.668Z,1012.38
2016-06-04T10:17:06.657Z,1012.4
2016-06-04T10:18:06.647Z,1012.29
2016-06-04T10:19:06.639Z,1012.36
2016-06-04T10:20:06.628Z,1012.38
2016-06-04T10:21:06.617Z,1012.4
2016-06-04T10:22:06.605Z,1012.36
2016-06-04T10:23:06.609Z,1012.39
2016-06-04T10:24:06.583Z,1012.41
2016-06-04T10:25:06.570Z,1012.49
2016-06-04T10:26:06.557Z,1012.51
2016-06-04T10:27:06.546Z,1012.51
2016-06-04T10:28:07.157Z,1012.5
2016-06-04T10:29:06.517Z,1012.52
2016-06-04T10:30:06.489Z,1012.46
2016-06-04T10:31:06.476Z,1012.55
2016-06-04T10:32:06.463Z,1012.5
2016-06-04T10:33:06.466Z,1012.59
2016-06-04T10:34:06.437Z,1012.5
2016-06-04T10:35:06.424Z,1012.59
2016-06-04T10:36:06.427Z,1012.58
2016-06-04T10:37:06.398Z,1012.66
2016-06-04T10:38:06.385Z,1012.67
2016-06-04T10:39:06.373Z,1012.61
2016-06-04T10:40:06.376Z,1012.79
2016-06-04T10:41:06.346Z,1012.66
2016-06-04T10:42:06.349Z,1012.61
2016-06-04T10:43:06.321Z,1012.7
2016-06-04T10:44:06.840Z,1012.85
2016-06-04T10:45:06.295Z,1012.66
2016-06-04T10:46:06.282Z,1012.67
2016-06-04T10:47:06.284Z,1012.71
2016-06-04T10:48:06.273Z,1012.62
2016-06-04T10:49:06.259Z,1012.73
2016-06-04T10:50:06.230Z,1012.74
2016-06-04T10:51:06.217Z,1012.73
2016-06-04T10:52:06.205Z,1012.68
2016-06-04T10:53:06.208Z,1012.66
2016-06-04T10:54:06.194Z,1012.69
2016-06-04T10:55:06.181Z,1012.69
2016-06-04T10:56:06.152Z,1012.6
2016-06-04T10:57:06.155Z,1012.71
2016-06-04T10:58:06.846Z,1012.67
2016-06-04T10:59:06.129Z,1012.71
2016-06-04T11:00:06.117Z,1012.73
2016-06-04T11:01:06.104Z,1012.59
2016-06-04T11:02:06.091Z,1012.71
2016-06-04T11:03:06.078Z,1012.65
2016-06-04T11:04:06.066Z,1012.62
2016-06-04T11:05:06.052Z,1012.59
2016-06-04T11:06:06.102Z,1012.65
2016-06-04T11:07:06.026Z,1012.58
2016-06-04T11:08:06.013Z,1012.6
2016-06-04T11:09:06.001Z,1012.57
2016-06-04T11:10:05.987Z,1012.6
2016-06-04T11:11:05.974Z,1012.6
2016-06-04T11:12:05.961Z,1012.55
2016-06-04T11:13:05.965Z,1012.57
2016-06-04T11:14:05.951Z,1012.56
2016-06-04T11:15:05.938Z,1012.53
2016-06-04T11:16:05.910Z,1012.53
2016-06-04T11:17:05.913Z,1012.6
2016-06-04T11:18:05.900Z,1012.58
2016-06-04T11:19:05.871Z,1012.64
2016-06-04T11:20:05.859Z,1012.59
2016-06-04T11:21:05.845Z,1012.61
2016-06-04T11:22:06.020Z,1012.58
2016-06-04T11:23:05.819Z,1012.57
2016-06-04T11:24:05.822Z,1012.69
2016-06-04T11:25:05.794Z,1012.67
2016-06-04T11:26:05.797Z,1012.64
2016-06-04T11:27:06.002Z,1012.67
2016-06-04T11:28:05.770Z,1012.68
2016-06-04T11:29:05.758Z,1012.63
2016-06-04T11:30:05.745Z,1012.59
2016-06-04T11:31:05.747Z,1012.58
2016-06-04T11:32:05.719Z,1012.69
2016-06-04T11:33:05.705Z,1012.57
2016-06-04T11:34:05.693Z,1012.54
2016-06-04T11:35:05.696Z,1012.46
2016-06-04T11:36:05.667Z,1012.55
2016-06-04T11:37:05.669Z,1012.76
2016-06-04T11:38:05.656Z,1012.9
2016-06-04T11:39:05.644Z,1012.93
2016-06-04T11:40:05.630Z,1012.86
2016-06-04T11:41:06.087Z,1012.81
2016-06-04T11:42:05.620Z,1012.83
2016-06-04T11:43:05.607Z,1012.86
2016-06-04T11:44:05.594Z,1012.87
2016-06-04T11:45:05.598Z,1012.77
2016-06-04T11:46:05.584Z,1012.65
2016-06-04T11:47:05.570Z,1012.54
2016-06-04T11:48:05.637Z,1012.82
2016-06-04T11:49:05.562Z,1012.56
2016-06-04T11:50:05.564Z,1012.76
2016-06-04T11:51:05.551Z,1012.82
2016-06-04T11:52:05.554Z,1012.72
2016-06-04T11:53:05.540Z,1012.77
2016-06-04T11:54:05.543Z,1012.74
2016-06-04T11:55:05.546Z,1012.81
2016-06-04T11:56:05.548Z,1012.69
2016-06-04T11:57:05.519Z,1012.71
2016-06-04T11:58:05.523Z,1012.77
2016-06-04T11:59:05.510Z,1012.74
2016-06-04T12:00:05.513Z,1012.77
2016-06-04T12:01:05.516Z,1012.7
2016-06-04T12:02:05.502Z,1012.77
2016-06-04T12:03:05.505Z,1012.69
2016-06-04T12:04:05.507Z,1012.67
2016-06-04T12:05:05.495Z,1012.75
2016-06-04T12:06:05.497Z,1012.8
2016-06-04T12:07:05.485Z,1012.53
2016-06-04T12:08:05.487Z,1012.85